Flight Track Log - Related Links

Times and Time Zones

All times are in EDT time to prevent confusion due to time zone crossing. See the SWA2855 flight status page for this flight to view local times or setup timezone preferences in your user account.

Time Position Orientation Groundspeed Altitude Reporting Facility
EDT Latitude Longitude Course Direction KTS MPH feet Rate Location/Type
Thu 11:25:23 AM 39.9500 -104.6333 90° East 244 281 8,000  Level Denver TRACON
Thu 11:26:10 AM 39.9978 -104.6000 28° Northeast 256 295 9,800 2,092 Climbing Denver Center
Thu 11:27:12 AM 40.0481 -104.5242 49° Northeast 295 339 11,800 1,597 Climbing Denver Center
Thu 11:28:14 AM 40.0239 -104.3964 104° East 344 396 13,100 1,935 Climbing Denver Center
Thu 11:29:16 AM 39.9972 -104.2617 104° East 381 438 15,800 2,565 Climbing Denver Center
Thu 11:30:00 AM 39.8833 -103.6806 90° East  Level FlightAware Approximate
Thu 11:30:18 AM 39.9656 -104.1144 106° East 392 451 18,400  Level Denver Center
Thu 11:31:20 AM 39.9356 -103.9725 105° East 403 464 20,800 2,081 Climbing Denver Center
Thu 11:32:22 AM 39.9031 -103.8244 106° East 423 487 22,700 2,016 Climbing Denver Center
Thu 11:33:25 AM 39.8917 -103.6639 95° East 423 487 25,000 1,968 Climbing Denver Center
Thu 11:34:27 AM 39.9094 -103.5006 82° East 452 520 26,800 1,645 Climbing Denver Center
Thu 11:35:29 AM 39.9292 -103.3342 81° East 464 534 28,400 1,500 Climbing Denver Center
Thu 11:36:31 AM 39.9514 -103.1636 80° East 477 549 29,900 1,694 Climbing Denver Center
Thu 11:37:33 AM 39.9903 -102.9611 76° East 481 554 31,900 1,500 Climbing Denver Center
Thu 11:38:35 AM 40.0194 -102.7889 77° East 486 559 33,000 532 Climbing Denver Center
Thu 11:39:37 AM 40.0472 -102.6169 78° East 491 565 33,000  Level Denver Center
Thu 11:40:39 AM 40.0797 -102.4247 77° East 486 559 33,000 48 Level Denver Center
Thu 11:41:41 AM 40.1086 -102.2592 77° East 488 562 33,100 677 Climbing Denver Center
Thu 11:42:43 AM 40.1358 -102.0939 78° East 487 560 34,400 1,210 Climbing Denver Center
Thu 11:43:45 AM 40.1672 -101.9008 78° East 488 562 35,600 1,161 Climbing Denver Center
Thu 11:44:47 AM 40.1944 -101.7358 78° East 487 560 36,800 677 Climbing Denver Center
Thu 11:45:49 AM 40.2250 -101.5411 78° East 490 564 37,000 97 Climbing Denver Center
Thu 11:46:51 AM 40.2517 -101.3761 78° East 487 560 37,000  Level Denver Center
Thu 11:47:53 AM 40.2814 -101.1828 79° East 487 560 37,000  Level Denver Center
Thu 11:48:55 AM 40.3072 -101.0192 78° East 484 557 37,000  Level Denver Center
Thu 11:49:57 AM 40.3367 -100.8286 78° East 482 555 37,000  Level Denver Center
Thu 11:50:59 AM 40.3619 -100.6650 78° East 483 556 37,000  Level Denver Center
Thu 11:52:01 AM 40.3900 -100.4736 79° East 483 556 37,000  Level Denver Center
Thu 11:53:03 AM 40.4144 -100.3094 79° East 482 555 37,000  Level Denver Center
Thu 11:54:05 AM 40.4433 -100.1175 79° East 483 556 37,000  Level Denver Center
Thu 11:55:08 AM 40.4675 -99.9519 79° East 484 557 37,000  Level Denver Center
Thu 11:56:10 AM 40.4942 -99.7694 79° East 484 557 37,000  Level Denver Center
Thu 11:57:12 AM 40.5194 -99.5947 79° East 487 560 37,000  Level Denver Center
Thu 11:58:14 AM 40.5361 -99.4186 83° East 486 559 37,000  Level Denver Center
Thu 11:59:16 AM 40.5447 -99.2058 87° East 488 562 37,000  Level Denver Center
Thu 12:00:30 PM 40.5472 -99.0267 89° East 492 566 37,000  Level Denver Center
Thu 12:01:32 PM 40.5492 -98.8125 89° East 492 566 37,000  Level Denver Center
Thu 12:02:35 PM 40.5475 -98.6336 91° East 493 567 37,000  Level Denver Center
Thu 12:03:37 PM 40.5469 -98.4186 90° East 493 567 37,000  Level Denver Center
Thu 12:04:40 PM 40.5556 -98.2422 86° East 490 564 37,000  Level Minneapolis Center
Thu 12:05:42 PM 40.5656 -98.0636 86° East 492 566 37,000  Level Minneapolis Center
Thu 12:06:45 PM 40.5722 -97.8853 87° East 491 565 37,000  Level Minneapolis Center
Thu 12:07:47 PM 40.5789 -97.7075 87° East 489 563 37,000  Level Minneapolis Center
Thu 12:08:49 PM 40.5881 -97.4925 87° East 491 565 37,000  Level Minneapolis Center
Thu 12:09:51 PM 40.5961 -97.3186 86° East 489 563 37,000  Level Minneapolis Center
Thu 12:10:53 PM 40.6028 -97.1397 87° East 491 565 37,000  Level Minneapolis Center
Thu 12:11:55 PM 40.6097 -96.9603 87° East 491 565 37,000  Level Minneapolis Center
Thu 12:12:57 PM 40.6164 -96.7814 87° East 492 566 37,000  Level Minneapolis Center
Thu 12:13:59 PM 40.6236 -96.6033 87° East 490 564 37,000  Level Minneapolis Center
Thu 12:15:01 PM 40.6297 -96.3892 88° East 491 565 37,000  Level Minneapolis Center
Thu 12:16:03 PM 40.6364 -96.2081 87° East 495 570 37,000  Level Minneapolis Center
Thu 12:17:05 PM 40.6422 -96.0278 87° East 496 571 37,000  Level Minneapolis Center
Thu 12:18:07 PM 40.6467 -95.8486 88° East 496 571 37,000  Level Minneapolis Center
Thu 12:19:09 PM 40.6517 -95.6697 88° East 494 568 37,000  Level Minneapolis Center
Thu 12:20:11 PM 40.6583 -95.4514 88° East 498 573 37,000  Level Minneapolis Center
Thu 12:21:14 PM 40.6633 -95.2714 88° East 496 571 37,000  Level Minneapolis Center
Thu 12:22:16 PM 40.6672 -95.0906 88° East 495 570 37,000  Level Minneapolis Center
Thu 12:23:18 PM 40.6703 -94.9094 89° East 498 573 37,000  Level Minneapolis Center
Thu 12:24:20 PM 40.6742 -94.7289 88° East 496 571 37,000  Level Minneapolis Center
Thu 12:25:22 PM 40.6781 -94.5239 89° East 496 571 37,000  Level Minneapolis Center
Thu 12:26:24 PM 40.6794 -94.3458 89° East 493 567 37,000  Level Minneapolis Center
Thu 12:27:26 PM 40.6831 -94.1669 88° East 492 566 37,000  Level Minneapolis Center
Thu 12:28:28 PM 40.6850 -93.9875 89° East 494 568 37,000  Level Minneapolis Center
Thu 12:29:30 PM 40.6869 -93.7717 89° East 495 570 37,000  Level Minneapolis Center
Thu 12:30:32 PM 40.6894 -93.5925 89° East 493 567 37,000  Level Minneapolis Center
Thu 12:31:05 PM 40.6906 -93.4831 89° East 494 568 37,000  Level Chicago Center
Thu 12:32:07 PM 40.6914 -93.3039 90° East 493 567 37,000  Level Chicago Center
Thu 12:33:10 PM 40.6928 -93.1267 89° East 487 560 37,000  Level Chicago Center
Thu 12:34:12 PM 40.6931 -92.9467 90° East 492 566 37,000  Level Chicago Center
Thu 12:35:14 PM 40.6933 -92.7711 90° East 482 555 37,000  Level Chicago Center
Thu 12:36:16 PM 40.6939 -92.5925 90° East 485 558 37,000  Level Chicago Center
Thu 12:37:18 PM 40.6936 -92.3781 90° East 487 560 37,000  Level Chicago Center
Thu 12:38:20 PM 40.6925 -92.2003 90° East 486 559 37,000  Level Chicago Center
Thu 12:39:22 PM 40.6914 -92.0228 90° East 486 559 37,000  Level Chicago Center
Thu 12:40:24 PM 40.6906 -91.8475 90° East 483 556 37,000  Level Chicago Center
Thu 12:41:26 PM 40.6903 -91.6728 90° East 480 552 37,000  Level Chicago Center
Thu 12:42:29 PM 40.6881 -91.4978 91° East 481 554 37,000  Level Chicago Center
Thu 12:43:31 PM 40.6867 -91.2881 90° East 479 551 37,000  Level Chicago Center
Thu 12:44:33 PM 40.6889 -91.1308 89° East 478 550 37,000  Level Chicago Center
Thu 12:45:35 PM 40.6944 -90.9567 88° East 475 547 37,000  Level Chicago Center
Thu 12:46:37 PM 40.6978 -90.7458 89° East 480 552 37,000  Level Chicago Center
Thu 12:47:39 PM 40.7008 -90.5697 89° East 481 554 37,000  Level Chicago Center
Thu 12:48:41 PM 40.7039 -90.3944 89° East 480 552 37,000  Level Chicago Center
Thu 12:49:43 PM 40.7069 -90.1992 89° East 479 551 37,000  Level Chicago Center
Thu 12:50:45 PM 40.7097 -90.0256 89° East 476 548 37,000  Level Chicago Center
Thu 12:51:47 PM 40.7106 -89.8503 90° East 480 552 37,000  Level Chicago Center
Thu 12:52:50 PM 40.7089 -89.6753 91° East 483 556 37,000  Level Chicago Center
Thu 12:53:52 PM 40.7153 -89.4983 87° East 487 560 37,000  Level Chicago Center
Thu 12:54:54 PM 40.7161 -89.3239 90° East 479 551 37,000  Level Chicago Center
Thu 12:55:56 PM 40.7172 -89.1139 90° East 477 549 37,000  Level Chicago Center
Thu 12:56:58 PM 40.7175 -88.9403 90° East 475 547 37,000  Level Chicago Center
Thu 12:58:00 PM 40.7186 -88.7767 89° East 471 542 37,000  Level Chicago Center
Thu 12:59:02 PM 40.7194 -88.5669 90° East 479 551 37,000  Level Chicago Center
Thu 01:00:04 PM 40.7189 -88.3917 90° East 481 554 37,000  Level Chicago Center
Thu 01:01:07 PM 40.7197 -88.2175 90° East 482 555 37,000  Level Chicago Center
Thu 01:02:08 PM 40.7192 -88.0419 90° East 484 557 37,000  Level Chicago Center
Thu 01:03:11 PM 40.7189 -87.8683 90° East 482 555 37,000  Level Chicago Center
Thu 01:04:13 PM 40.7189 -87.6567 90° East 487 560 37,000  Level Chicago Center
Thu 01:05:15 PM 40.7169 -87.4833 91° East 480 552 37,000  Level Chicago Center
Thu 01:06:17 PM 40.7153 -87.3058 91° East 488 562 37,000  Level Chicago Center
Thu 01:07:19 PM 40.7142 -87.1267 90° East 496 571 37,000  Level Chicago Center
Thu 01:08:21 PM 40.7111 -86.9097 91° East 500 575 37,000  Level Chicago Center
Thu 01:09:23 PM 40.7089 -86.7278 91° East 502 578 37,000  Level Chicago Center
Thu 01:10:25 PM 40.7033 -86.5367 92° East 495 570 37,000  Level Chicago Center
Thu 01:11:28 PM 40.7008 -86.3564 91° East 495 570 37,000  Level Chicago Center
Thu 01:12:30 PM 40.6967 -86.1789 92° East 489 563 37,000  Level Chicago Center
Thu 01:13:32 PM 40.6936 -86.0031 91° East 484 557 37,000  Level Chicago Center
Thu 01:14:34 PM 40.6892 -85.8283 92° East 483 556 37,000  Level Chicago Center
Thu 01:16:01 PM 40.6817 -85.5503 92° East 477 549 37,000  Level Chicago Center
Thu 01:17:03 PM 40.6772 -85.3781 92° East 476 548 37,000  Level Chicago Center
Thu 01:18:05 PM 40.6725 -85.2047 92° East 475 547 37,000  Level Chicago Center
Thu 01:19:07 PM 40.6667 -85.0331 93° East 475 547 37,000  Level Chicago Center
Thu 01:19:57 PM 40.6608 -84.8703 93° East 480 552 37,000  Level Indianapolis Center
Thu 01:20:59 PM 40.6311 -84.7003 103° East 477 549 37,000  Level Indianapolis Center
Thu 01:22:00 PM 40.6042 -84.5272 102° East 477 549 37,000  Level Indianapolis Center
Thu 01:23:02 PM 40.5808 -84.3542 100° East 476 548 37,000  Level Indianapolis Center
Thu 01:24:03 PM 40.5589 -84.1833 100° East 471 542 37,000  Level Indianapolis Center
Thu 01:25:05 PM 40.5511 -84.0078 93° East 473 544 37,000  Level Indianapolis Center
Thu 01:26:06 PM 40.5481 -83.8319 91° East 474 545 37,000  Level Indianapolis Center
Thu 01:27:08 PM 40.5442 -83.6547 92° East 479 551 37,000  Level Indianapolis Center
Thu 01:28:09 PM 40.5386 -83.4781 92° East 478 550 37,000  Level Indianapolis Center
Thu 01:29:11 PM 40.5322 -83.2714 92° East 479 551 37,000  Level Indianapolis Center
Thu 01:30:12 PM 40.5289 -83.1194 92° East 480 552 37,000  Level Indianapolis Center
Thu 01:31:14 PM 40.5225 -82.9156 92° East 475 547 37,000  Level Indianapolis Center
Thu 01:32:15 PM 40.5164 -82.7411 93° East 475 547 37,000  Level Indianapolis Center
Thu 01:33:17 PM 40.5094 -82.5658 93° East 477 549 37,000  Level Indianapolis Center
Thu 01:34:18 PM 40.5039 -82.3900 92° East 479 551 37,000  Level Indianapolis Center
Thu 01:35:20 PM 40.4972 -82.2169 93° East 476 548 37,000  Level Indianapolis Center
Thu 01:36:21 PM 40.4900 -82.0403 93° East 479 551 37,000  Level Indianapolis Center
Thu 01:37:23 PM 40.4831 -81.8639 93° East 481 554 37,000  Level Indianapolis Center
Thu 01:38:24 PM 40.4750 -81.6903 93° East 478 550 37,000  Level Indianapolis Center
Thu 01:38:55 PM 40.4711 -81.5956 93° East 479 551 37,000  Level Cleveland Center
Thu 01:39:55 PM 40.4622 -81.4181 94° East 479 551 37,000  Level Cleveland Center
Thu 01:40:55 PM 40.4572 -81.2297 92° East 479 551 37,000  Level Cleveland Center
Thu 01:41:55 PM 40.4478 -81.0550 94° East 479 551 37,000  Level Cleveland Center
Thu 01:42:55 PM 40.4400 -80.8778 93° East 479 551 37,000  Level Cleveland Center
Thu 01:43:55 PM 40.4297 -80.7003 94° East 479 551 37,000  Level Cleveland Center
Thu 01:44:55 PM 40.4217 -80.5286 93° East 479 551 37,000  Level Cleveland Center
Thu 01:45:55 PM 40.4131 -80.3567 94° East 479 551 37,000  Level Cleveland Center
Thu 01:46:55 PM 40.4042 -80.2014 94° East 479 551 37,000  Level Cleveland Center
Thu 01:47:55 PM 40.3972 -80.0269 93° East 479 551 37,000  Level Cleveland Center
Thu 01:48:55 PM 40.3922 -79.8497 92° East 479 551 37,000  Level Cleveland Center
Thu 01:49:55 PM 40.3847 -79.6781 93° East 479 551 37,000 -550 Level Cleveland Center
Thu 01:50:55 PM 40.3747 -79.5094 94° East 479 551 35,900 -1,100 Descending Cleveland Center
Thu 01:51:55 PM 40.3689 -79.3458 93° East 466 536 34,800 -1,050 Descending Cleveland Center
Thu 01:52:55 PM 40.3589 -79.1853 95° East 451 519 33,800 -900 Descending Cleveland Center
Thu 01:53:55 PM 40.3483 -79.0222 95° East 441 507 33,000 -400 Descending Cleveland Center
Thu 01:54:55 PM 40.3394 -78.8481 94° East 452 520 33,000  Level Cleveland Center
Thu 01:55:55 PM 40.3300 -78.6494 94° East 485 558 33,000 -300 Level Cleveland Center
Thu 01:56:55 PM 40.3186 -78.4781 95° East 485 558 32,400 -1,950 Descending Cleveland Center
Thu 01:57:55 PM 40.3131 -78.2958 92° East 490 564 29,100 -2,500 Descending Cleveland Center
Thu 01:59:19 PM 40.3131 -78.0719 90° East 510 587 26,400 -1,732 Descending New York Center
Thu 02:00:17 PM 40.3131 -77.9006 90° East 496 571 25,000 -700 Descending New York Center
Thu 02:01:19 PM 40.3092 -77.7203 92° East 466 536 25,000  Level New York Center
Thu 02:02:19 PM 40.2892 -77.5606 99° East 449 517 25,000  Level New York Center
Thu 02:03:16 PM 40.2692 -77.4006 99° East 449 517 25,000 -966 Level New York Center
Thu 02:04:17 PM 40.2467 -77.2433 101° East 443 510 23,100 -1,983 Descending New York Center
Thu 02:05:17 PM 40.2256 -77.0919 100° East 435 501 21,000 -1,835 Descending New York Center
Thu 02:06:18 PM 40.2111 -76.9736 99° East 420 483 19,400 -984 Descending New York Center
Thu 02:07:19 PM 40.1889 -76.7978 99° East 429 494 19,000 -807 Descending New York Center
Thu 02:08:17 PM 40.1736 -76.6442 97° East 429 494 17,800 -1,475 Descending New York Center
Thu 02:09:17 PM 40.1569 -76.4744 97° East 429 494 16,100 -1,785 Descending New York Center
Thu 02:10:18 PM 40.1411 -76.3264 98° East 414 476 14,200 -1,820 Descending New York Center
Thu 02:11:19 PM 40.1286 -76.1925 97° East 408 470 12,400 -1,815 Descending New York Center
Thu 02:12:17 PM 40.1161 -76.0531 97° East 402 463 10,600 -1,311 Descending New York Center
Thu 02:13:18 PM 40.0994 -75.9106 99° East 371 427 9,800 -1,033 Descending New York Center
Thu 02:14:19 PM 40.0836 -75.7928 100° East 347 399 8,500 -1,140 Descending New York Center
Thu 02:15:19 PM 40.0819 -75.6842 91° East 336 387 7,500 -1,271 Descending New York Center
Thu 02:16:17 PM 40.0894 -75.5544 86° East 331 381 6,000 -750 Descending New York Center
Thu 02:17:19 PM 40.0939 -75.4461 87° East 326 375 6,000  Level New York Center
Thu 02:18:23 PM 40.0667 -75.3000 104° East 310 357 6,000  Level Philadelphia TRACON
Thu 02:19:23 PM 40.0167 -75.2167 128° Southeast 302 348 6,000  Level Philadelphia TRACON
Thu 02:20:17 PM 40.0167 -75.1333 90° East 285 328 6,000 -56 Level Philadelphia TRACON
Thu 02:21:11 PM 40.0333 -75.0500 75° East 255 293 5,900 -571 Descending Philadelphia TRACON
Thu 02:22:23 PM 40.0333 -74.9500 90° East 232 267 4,800 -950 Descending Philadelphia TRACON
Thu 02:23:11 PM 40.0000 -74.9333 159° South 173 199 4,000 -947 Descending Philadelphia TRACON
Thu 02:24:17 PM 39.9500 -74.9333 180° South 168 193 3,000 -500 Descending Philadelphia TRACON
Thu 02:25:11 PM 39.9333 -74.9833 247° West 167 192 3,000 -421 Level Philadelphia TRACON
Thu 02:26:11 PM 39.9167 -75.0333 247° West 180 207 2,200 -571 Descending Philadelphia TRACON
Thu 02:27:17 PM 39.9000 -75.1000 252° West 171 197 1,800 -571 Descending Philadelphia TRACON
Thu 02:28:17 PM 39.8833 -75.1500 247° West 144 166 1,000 -714 Descending Philadelphia TRACON
Thu 02:29:23 PM 39.8833 -75.2167 270° West 142 163 300 -636 Descending Philadelphia TRACON
Thu 02:31:00 PM 39.8667 -75.2333 231° Southwest  Level FlightAware Approximate

Login

Don't have an account? Register now (free) for customized features, flight alerts, and more!